createdAt,value
2019-05-13T00:00:57.125Z,91.00
2019-05-13T00:03:28.227Z,91.00
2019-05-13T00:05:59.007Z,91.10
2019-05-13T00:08:30.036Z,91.30
2019-05-13T00:11:00.945Z,91.10
2019-05-13T00:13:33.705Z,91.10
2019-05-13T00:16:04.089Z,91.00
2019-05-13T00:18:35.022Z,90.50
2019-05-13T00:21:05.888Z,90.20
2019-05-13T00:23:36.811Z,90.20
2019-05-13T00:26:07.685Z,90.10
2019-05-13T00:28:38.553Z,90.00
2019-05-13T00:31:09.587Z,90.10
2019-05-13T00:33:40.386Z,90.10
2019-05-13T00:36:14.177Z,90.00
2019-05-13T00:38:43.993Z,89.90
2019-05-13T00:41:15.197Z,89.90
2019-05-13T00:43:46.293Z,90.00
2019-05-13T00:46:17.220Z,90.10
2019-05-13T00:48:48.588Z,90.00
2019-05-13T00:51:19.416Z,89.60
2019-05-13T00:53:50.352Z,89.10
2019-05-13T00:56:21.265Z,89.00
2019-05-13T00:58:53.977Z,89.80
2019-05-13T01:01:24.446Z,89.30
2019-05-13T01:03:55.514Z,89.20
2019-05-13T01:06:26.424Z,89.10
2019-05-13T01:08:57.275Z,88.90
2019-05-13T01:11:28.306Z,89.10
2019-05-13T01:13:59.375Z,89.30
2019-05-13T01:16:30.384Z,89.00
2019-05-13T01:19:04.020Z,89.10
2019-05-13T01:21:34.474Z,88.80
2019-05-13T01:24:05.799Z,88.20
2019-05-13T01:26:36.803Z,88.50
2019-05-13T01:29:07.844Z,88.10
2019-05-13T01:31:39.236Z,88.40
2019-05-13T01:34:10.019Z,88.40
2019-05-13T01:36:41.150Z,88.00
2019-05-13T01:39:13.878Z,87.80
2019-05-13T01:41:44.460Z,88.10
2019-05-13T01:44:15.515Z,88.30
2019-05-13T01:46:46.483Z,87.90
2019-05-13T01:49:18.674Z,87.50
2019-05-13T01:51:50.133Z,87.40
2019-05-13T01:54:21.093Z,87.10
2019-05-13T01:56:53.526Z,86.70
2019-05-13T01:59:24.373Z,86.10
2019-05-13T02:01:55.473Z,85.60
2019-05-13T02:04:26.574Z,85.10
2019-05-13T02:06:57.546Z,85.20
2019-05-13T02:09:28.679Z,85.70
2019-05-13T02:11:59.449Z,85.70
2019-05-13T02:14:30.241Z,85.70
2019-05-13T02:17:01.071Z,85.90
2019-05-13T02:19:33.602Z,85.90
2019-05-13T02:22:04.383Z,86.20
2019-05-13T02:24:35.475Z,86.40
2019-05-13T02:27:06.590Z,86.00
2019-05-13T02:29:37.819Z,85.90
2019-05-13T02:32:08.978Z,85.80
2019-05-13T02:34:43.314Z,85.50
2019-05-13T02:37:12.835Z,85.40
2019-05-13T02:39:44.151Z,85.20
2019-05-13T02:42:15.027Z,84.50
2019-05-13T02:44:45.934Z,84.00
2019-05-13T02:47:16.815Z,84.40
2019-05-13T02:49:47.763Z,84.80
2019-05-13T02:52:22.248Z,84.80
2019-05-13T02:54:52.775Z,84.80
2019-05-13T02:57:23.965Z,85.80
2019-05-13T02:59:55.143Z,84.20
2019-05-13T03:02:26.080Z,84.10
2019-05-13T03:04:56.888Z,84.40
2019-05-13T03:07:27.666Z,84.40
2019-05-13T03:09:58.735Z,84.50
2019-05-13T03:12:32.027Z,84.60
2019-05-13T03:15:02.795Z,85.00
2019-05-13T03:17:38.788Z,85.20
2019-05-13T03:20:15.793Z,85.40
2019-05-13T03:22:43.570Z,85.40
2019-05-13T03:25:14.430Z,85.30
2019-05-13T03:27:45.922Z,85.10
2019-05-13T03:30:17.431Z,84.70
2019-05-13T03:32:55.119Z,84.70
2019-05-13T03:35:26.738Z,84.70
2019-05-13T03:37:54.254Z,84.90
2019-05-13T03:40:25.409Z,85.10
2019-05-13T03:43:02.320Z,85.20
2019-05-13T03:45:32.804Z,85.00
2019-05-13T03:48:04.463Z,85.20
2019-05-13T03:50:35.554Z,85.10
2019-05-13T03:53:06.387Z,85.70
2019-05-13T03:55:37.990Z,84.90
2019-05-13T03:58:12.816Z,84.70
2019-05-13T04:00:42.823Z,84.80
2019-05-13T04:03:14.127Z,84.30
2019-05-13T04:05:44.874Z,84.40
2019-05-13T04:08:16.141Z,84.10
2019-05-13T04:10:47.032Z,85.20
2019-05-13T04:13:18.222Z,84.50
2019-05-13T04:15:49.220Z,84.20
2019-05-13T04:18:23.495Z,84.10
2019-05-13T04:20:53.190Z,84.20
2019-05-13T04:23:24.429Z,84.50
2019-05-13T04:25:55.580Z,83.30
2019-05-13T04:28:26.823Z,83.10
2019-05-13T04:30:57.933Z,82.20
2019-05-13T04:33:33.094Z,82.80
2019-05-13T04:36:02.560Z,82.50
2019-05-13T04:38:33.840Z,82.30
2019-05-13T04:41:05.066Z,82.20
2019-05-13T04:43:36.145Z,81.90
2019-05-13T04:46:07.242Z,81.20
2019-05-13T04:49:08.596Z,81.20
2019-05-13T04:51:41.975Z,81.20
2019-05-13T04:54:13.279Z,81.30
2019-05-13T04:56:44.790Z,81.90
2019-05-13T04:59:15.655Z,81.50
2019-05-13T05:02:18.031Z,81.20
2019-05-13T05:05:12.759Z,81.50
2019-05-13T05:07:52.554Z,81.50
2019-05-13T05:10:50.041Z,82.00
2019-05-13T05:13:27.436Z,80.80
2019-05-13T05:16:26.597Z,80.20
2019-05-13T05:19:17.517Z,80.50
2019-05-13T05:22:02.667Z,80.00
2019-05-13T05:24:53.657Z,79.60
2019-05-13T05:27:58.213Z,80.00
2019-05-13T05:30:51.692Z,79.40
2019-05-13T05:33:53.054Z,78.40
2019-05-13T05:36:36.277Z,78.30
2019-05-13T05:39:12.154Z,78.20
2019-05-13T05:41:44.671Z,78.00
2019-05-13T05:44:17.335Z,77.80
2019-05-13T05:46:51.521Z,78.30
2019-05-13T05:49:23.786Z,77.40
2019-05-13T05:52:03.115Z,76.80
2019-05-13T05:54:35.661Z,77.10
2019-05-13T05:57:07.924Z,76.40
2019-05-13T05:59:41.849Z,76.40
2019-05-13T06:02:12.540Z,76.40
2019-05-13T06:04:44.729Z,76.60
2019-05-13T06:07:16.855Z,76.80
2019-05-13T06:09:47.880Z,77.30
2019-05-13T06:12:22.041Z,78.30
2019-05-13T06:14:53.156Z,77.70
2019-05-13T06:17:24.434Z,77.30
2019-05-13T06:19:56.826Z,77.40
2019-05-13T06:22:28.132Z,77.30
2019-05-13T06:25:01.277Z,77.70
2019-05-13T06:27:31.872Z,77.60
2019-05-13T06:30:02.800Z,78.00
2019-05-13T06:32:33.984Z,78.00
2019-05-13T06:35:05.858Z,78.30
2019-05-13T06:37:37.196Z,78.70
2019-05-13T06:40:09.002Z,79.10
2019-05-13T06:42:41.740Z,79.30
2019-05-13T06:45:12.716Z,79.50
2019-05-13T06:47:43.877Z,79.60
2019-05-13T06:50:15.480Z,79.60
2019-05-13T06:52:46.374Z,79.60
2019-05-13T06:55:17.394Z,80.20
2019-05-13T06:57:48.358Z,80.80
2019-05-13T07:00:21.504Z,80.90
2019-05-13T07:02:52.053Z,81.60
2019-05-13T07:05:26.212Z,82.00
2019-05-13T07:07:57.269Z,82.30
2019-05-13T07:10:28.428Z,82.40
2019-05-13T07:13:02.196Z,82.50
2019-05-13T07:15:33.448Z,82.40
2019-05-13T07:18:04.411Z,82.40
2019-05-13T07:20:35.494Z,82.30
2019-05-13T07:23:17.265Z,82.60
2019-05-13T07:25:48.211Z,82.80
2019-05-13T07:28:21.675Z,82.80
2019-05-13T07:30:51.795Z,82.70
2019-05-13T07:33:23.472Z,82.70
2019-05-13T07:35:58.065Z,82.40
2019-05-13T07:38:32.207Z,82.40
2019-05-13T07:41:06.239Z,82.60
2019-05-13T07:43:37.189Z,83.10
2019-05-13T07:46:08.706Z,83.90
2019-05-13T07:48:41.606Z,83.90
2019-05-13T07:51:12.171Z,84.30
2019-05-13T07:53:43.090Z,84.20
2019-05-13T07:56:14.169Z,84.20
2019-05-13T07:58:45.290Z,84.40
2019-05-13T08:01:16.252Z,84.50
2019-05-13T08:03:47.765Z,84.90
2019-05-13T08:06:21.757Z,84.70
2019-05-13T08:08:52.323Z,84.70
2019-05-13T08:11:24.166Z,84.10
2019-05-13T08:13:55.267Z,83.80
2019-05-13T08:16:26.216Z,84.00
2019-05-13T08:18:57.255Z,83.80
2019-05-13T08:21:29.401Z,83.80
2019-05-13T08:24:02.806Z,83.70
2019-05-13T08:26:38.129Z,83.70
2019-05-13T08:29:06.119Z,83.80
2019-05-13T08:31:37.443Z,83.60
2019-05-13T08:34:08.450Z,83.50
2019-05-13T08:36:42.155Z,83.40
2019-05-13T08:39:12.920Z,83.50
2019-05-13T08:41:44.080Z,83.40
2019-05-13T08:44:15.294Z,82.60
2019-05-13T08:46:46.381Z,82.40
2019-05-13T08:49:17.432Z,82.70
2019-05-13T08:51:48.513Z,82.70
2019-05-13T08:54:21.957Z,82.70
2019-05-13T08:56:53.325Z,82.50
2019-05-13T08:59:24.526Z,82.30
2019-05-13T09:01:55.920Z,82.20
2019-05-13T09:04:27.265Z,82.30
2019-05-13T09:06:58.513Z,82.20
2019-05-13T09:09:31.436Z,82.20
2019-05-13T09:12:02.628Z,82.60
2019-05-13T09:14:33.677Z,82.50
2019-05-13T09:17:04.546Z,82.10
2019-05-13T09:19:35.670Z,81.80
2019-05-13T09:22:07.182Z,81.70
2019-05-13T09:24:38.363Z,81.40
2019-05-13T09:27:11.859Z,81.10
2019-05-13T09:29:42.708Z,81.20
2019-05-13T09:32:14.029Z,81.30
2019-05-13T09:34:44.916Z,82.20
2019-05-13T09:37:15.856Z,83.60
2019-05-13T09:39:47.209Z,83.90
2019-05-13T09:42:17.999Z,82.80
2019-05-13T09:44:48.841Z,82.90
2019-05-13T09:47:21.665Z,82.30
2019-05-13T09:49:54.367Z,81.90
2019-05-13T09:52:24.266Z,81.70
2019-05-13T09:54:54.977Z,81.70
2019-05-13T09:57:25.891Z,82.30
2019-05-13T09:59:57.115Z,81.30
2019-05-13T10:02:27.955Z,81.10
2019-05-13T10:04:59.083Z,81.30
2019-05-13T10:07:31.826Z,81.80
2019-05-13T10:10:02.422Z,82.50
2019-05-13T10:12:33.120Z,82.50
2019-05-13T10:15:04.000Z,82.70
2019-05-13T10:17:34.872Z,82.60
2019-05-13T10:20:11.966Z,82.80
2019-05-13T10:22:42.109Z,82.80
2019-05-13T10:25:18.575Z,82.40
2019-05-13T10:27:49.792Z,82.70
2019-05-13T10:30:21.799Z,82.70
2019-05-13T10:32:52.774Z,82.80
2019-05-13T10:35:23.809Z,83.00
2019-05-13T10:37:54.910Z,83.10
2019-05-13T10:40:26.215Z,83.10
2019-05-13T10:42:57.144Z,83.30
2019-05-13T10:45:28.035Z,83.40
2019-05-13T10:47:58.925Z,83.50
2019-05-13T10:50:30.051Z,83.50
2019-05-13T10:53:02.759Z,83.50
2019-05-13T10:55:33.655Z,83.60
2019-05-13T10:58:07.276Z,83.80
2019-05-13T11:00:43.674Z,83.40
2019-05-13T11:03:14.587Z,83.30
2019-05-13T11:05:45.957Z,83.20
2019-05-13T11:08:16.964Z,82.90
2019-05-13T11:10:47.981Z,82.70
2019-05-13T11:13:18.977Z,83.10
2019-05-13T11:15:51.921Z,83.30
2019-05-13T11:18:24.362Z,83.60
2019-05-13T11:20:54.624Z,83.70
2019-05-13T11:23:25.396Z,83.70
2019-05-13T11:25:56.683Z,83.70
2019-05-13T11:28:27.577Z,83.90
2019-05-13T11:30:59.757Z,83.70
2019-05-13T11:33:31.884Z,83.70
2019-05-13T11:36:03.594Z,83.90
2019-05-13T11:38:34.613Z,84.00
2019-05-13T11:41:06.361Z,84.20
2019-05-13T11:43:41.370Z,84.20
2019-05-13T11:46:12.509Z,84.30
2019-05-13T11:48:43.499Z,84.20
2019-05-13T11:51:14.199Z,85.10
2019-05-13T11:53:45.080Z,84.30
2019-05-13T11:56:17.900Z,84.50
2019-05-13T11:58:48.594Z,84.50
2019-05-13T12:01:22.609Z,84.60
2019-05-13T12:03:54.688Z,84.70
2019-05-13T12:06:26.117Z,84.90
2019-05-13T12:09:02.445Z,84.70
2019-05-13T12:11:33.061Z,85.50
2019-05-13T12:14:02.706Z,84.80
2019-05-13T12:16:34.987Z,85.00
2019-05-13T12:19:27.932Z,85.10
2019-05-13T12:21:58.819Z,84.90
2019-05-13T12:24:32.709Z,85.00
2019-05-13T12:27:05.651Z,84.80
2019-05-13T12:29:52.842Z,84.80
2019-05-13T12:32:32.210Z,84.90
2019-05-13T12:35:03.238Z,84.90
2019-05-13T12:37:33.452Z,84.80
2019-05-13T12:43:02.099Z,85.10
2019-05-13T12:45:56.324Z,85.40
2019-05-13T12:48:31.261Z,85.30
2019-05-13T12:51:13.308Z,85.40
2019-05-13T12:53:47.455Z,86.30
2019-05-13T12:56:23.472Z,85.50
2019-05-13T12:59:16.257Z,85.80
2019-05-13T13:01:48.472Z,85.80
2019-05-13T13:04:25.240Z,85.90
2019-05-13T13:06:59.038Z,85.90
2019-05-13T13:09:33.726Z,86.10
2019-05-13T13:12:05.186Z,86.10
2019-05-13T13:14:39.575Z,86.20
2019-05-13T13:17:13.291Z,86.20
2019-05-13T13:19:44.201Z,86.40
2019-05-13T13:22:19.086Z,86.40
2019-05-13T13:24:55.928Z,86.50
2019-05-13T13:27:47.033Z,86.00
2019-05-13T13:30:03.242Z,85.70
2019-05-13T13:32:33.137Z,85.40
2019-05-13T13:35:04.917Z,85.20
2019-05-13T13:37:37.019Z,84.80
2019-05-13T13:40:09.979Z,85.10
2019-05-13T13:43:05.306Z,85.80
2019-05-13T13:46:05.982Z,86.50
2019-05-13T13:48:07.831Z,87.20
2019-05-13T13:50:46.439Z,88.10
2019-05-13T13:53:18.503Z,89.10
2019-05-13T13:58:32.817Z,90.80
2019-05-13T14:01:12.529Z,91.20
2019-05-13T14:03:38.379Z,91.60
2019-05-13T14:06:12.548Z,91.80
2019-05-13T14:06:59.166Z,90.20
2019-05-13T14:08:45.435Z,91.90
2019-05-13T14:11:23.165Z,92.30
2019-05-13T14:13:54.634Z,92.00
2019-05-13T14:16:31.259Z,92.10
2019-05-13T14:18:57.854Z,92.40
2019-05-13T14:21:32.235Z,92.60
2019-05-13T14:24:02.777Z,92.90
2019-05-13T14:26:33.782Z,93.20
2019-05-13T14:29:04.743Z,93.30
2019-05-13T14:31:36.018Z,93.40
2019-05-13T14:34:07.236Z,93.60
2019-05-13T14:36:38.237Z,93.80
2019-05-13T14:39:11.848Z,94.10
2019-05-13T14:41:42.566Z,93.90
2019-05-13T14:44:13.738Z,94.10
2019-05-13T14:46:47.883Z,94.10
2019-05-13T14:49:18.506Z,94.20
2019-05-13T14:51:51.777Z,94.20
2019-05-13T14:54:23.221Z,94.20
2019-05-13T14:56:54.161Z,94.20
2019-05-13T14:59:25.713Z,94.50
2019-05-13T15:02:01.332Z,93.90
2019-05-13T15:04:33.820Z,94.10
2019-05-13T15:07:05.112Z,94.00
2019-05-13T15:09:36.599Z,94.00
2019-05-13T15:12:11.154Z,93.90
2019-05-13T15:14:43.539Z,93.90
2019-05-13T15:17:14.609Z,94.30
2019-05-13T15:19:45.523Z,94.30
2019-05-13T15:22:16.565Z,94.30
2019-05-13T15:24:47.423Z,94.10
2019-05-13T15:27:22.082Z,94.10
2019-05-13T15:29:52.338Z,94.10
2019-05-13T15:32:23.237Z,93.90
2019-05-13T15:34:54.299Z,94.10
2019-05-13T15:37:25.241Z,94.30
2019-05-13T15:39:58.998Z,94.60
2019-05-13T15:42:32.737Z,94.70
2019-05-13T15:45:04.145Z,94.80
2019-05-13T15:47:35.336Z,94.80
2019-05-13T15:50:08.285Z,94.70
2019-05-13T15:52:39.166Z,94.80
2019-05-13T15:55:34.008Z,94.80
2019-05-13T15:58:04.893Z,94.80
2019-05-13T16:00:35.741Z,94.80
2019-05-13T16:03:08.612Z,94.90
2019-05-13T16:05:38.857Z,95.20
2019-05-13T16:08:11.984Z,95.30
2019-05-13T16:10:42.272Z,95.30
2019-05-13T16:13:13.359Z,95.20
2019-05-13T16:15:44.441Z,95.00
2019-05-13T16:18:15.474Z,94.70
2019-05-13T16:20:46.339Z,94.70
2019-05-13T16:23:17.175Z,94.80
2019-05-13T16:25:48.060Z,94.90
2019-05-13T16:28:19.060Z,95.00
2019-05-13T16:30:51.597Z,95.20
2019-05-13T16:33:22.327Z,95.20
2019-05-13T16:35:53.196Z,95.10
2019-05-13T16:38:24.049Z,95.10
2019-05-13T16:40:55.048Z,95.20
2019-05-13T16:43:25.812Z,95.20
2019-05-13T16:45:56.857Z,95.30
2019-05-13T16:48:28.138Z,95.30
2019-05-13T16:50:59.191Z,95.30
2019-05-13T16:53:31.550Z,95.50
2019-05-13T16:56:03.878Z,95.40
2019-05-13T16:58:34.733Z,95.60
2019-05-13T17:01:08.264Z,95.50
2019-05-13T17:03:41.184Z,95.40
2019-05-13T17:06:12.698Z,95.50
2019-05-13T17:08:43.782Z,95.60
2019-05-13T17:11:15.068Z,95.60
2019-05-13T17:13:45.903Z,95.70
2019-05-13T17:16:16.889Z,95.80
2019-05-13T17:18:47.768Z,96.00
2019-05-13T17:21:18.606Z,95.80
2019-05-13T17:23:49.420Z,95.80
2019-05-13T17:26:21.953Z,95.70
2019-05-13T17:28:52.378Z,95.70
2019-05-13T17:31:23.253Z,95.90
2019-05-13T17:33:54.150Z,95.90
2019-05-13T17:36:24.860Z,96.00
2019-05-13T17:38:55.882Z,95.70
2019-05-13T17:41:26.664Z,95.70
2019-05-13T17:43:58.763Z,95.60
2019-05-13T17:46:29.551Z,95.60
2019-05-13T17:49:00.999Z,95.80
2019-05-13T17:51:32.011Z,95.90
2019-05-13T17:54:02.883Z,96.00
2019-05-13T17:56:38.949Z,95.90
2019-05-13T17:59:11.189Z,95.80
2019-05-13T18:01:42.680Z,95.90
2019-05-13T18:04:13.675Z,95.90
2019-05-13T18:06:47.581Z,95.80
2019-05-13T18:09:18.433Z,95.90
2019-05-13T18:11:49.761Z,95.90
2019-05-13T18:14:22.130Z,95.90
2019-05-13T18:16:53.245Z,95.90
2019-05-13T18:19:25.951Z,95.80
2019-05-13T18:21:59.337Z,95.80
2019-05-13T18:24:32.125Z,95.80
2019-05-13T18:27:02.657Z,95.80
2019-05-13T18:29:33.468Z,95.90
2019-05-13T18:32:04.441Z,95.80
2019-05-13T18:34:35.361Z,95.90
2019-05-13T18:37:06.340Z,96.10
2019-05-13T18:39:37.173Z,96.20
2019-05-13T18:42:08.019Z,96.20
2019-05-13T18:44:38.782Z,96.10
2019-05-13T18:47:11.794Z,96.00
2019-05-13T18:49:42.435Z,96.00
2019-05-13T18:52:13.628Z,95.90
2019-05-13T18:54:45.347Z,96.00
2019-05-13T18:57:16.184Z,96.10
2019-05-13T18:59:47.147Z,96.20
2019-05-13T19:02:18.043Z,96.20
2019-05-13T19:04:48.933Z,96.10
2019-05-13T19:07:21.886Z,96.20
2019-05-13T19:09:52.284Z,96.30
2019-05-13T19:12:25.689Z,96.40
2019-05-13T19:14:55.668Z,96.40
2019-05-13T19:17:26.708Z,96.30
2019-05-13T19:19:57.606Z,96.20
2019-05-13T19:22:28.371Z,96.10
2019-05-13T19:25:01.118Z,96.00
2019-05-13T19:27:32.092Z,96.10
2019-05-13T19:30:02.957Z,96.00
2019-05-13T19:32:34.120Z,95.80
2019-05-13T19:35:05.193Z,95.70
2019-05-13T19:37:36.208Z,95.60
2019-05-13T19:42:44.813Z,95.80
2019-05-13T19:45:16.097Z,95.70
2019-05-13T19:47:46.896Z,95.70
2019-05-13T19:50:17.830Z,95.80
2019-05-13T19:52:49.011Z,95.70
2019-05-13T19:55:20.137Z,95.60
2019-05-13T19:57:51.715Z,95.50
2019-05-13T20:00:23.018Z,95.50
2019-05-13T20:02:54.995Z,95.50
2019-05-13T20:05:25.900Z,95.40
2019-05-13T20:07:56.667Z,95.50
2019-05-13T20:10:27.717Z,95.50
2019-05-13T20:12:58.886Z,95.50
2019-05-13T20:15:31.506Z,95.40
2019-05-13T20:18:02.487Z,95.30
2019-05-13T20:20:33.268Z,95.40
2019-05-13T20:23:04.017Z,95.40
2019-05-13T20:25:34.883Z,95.50
2019-05-13T20:28:05.697Z,95.60
2019-05-13T20:30:36.537Z,95.60
2019-05-13T20:33:07.412Z,95.60
2019-05-13T20:35:47.181Z,95.70
2019-05-13T20:38:18.089Z,95.90
2019-05-13T20:40:48.839Z,96.00
2019-05-13T20:43:19.597Z,96.00
2019-05-13T20:45:57.601Z,95.90
2019-05-13T20:48:28.491Z,95.80
2019-05-13T20:50:59.304Z,95.80
2019-05-13T20:53:31.078Z,95.80
2019-05-13T20:56:02.530Z,95.70
2019-05-13T20:58:33.491Z,95.60
2019-05-13T21:01:04.391Z,95.70
2019-05-13T21:03:35.180Z,95.70
2019-05-13T21:06:06.144Z,95.80
2019-05-13T21:08:36.969Z,95.90
2019-05-13T21:11:07.739Z,95.90
2019-05-13T21:13:38.561Z,96.10
2019-05-13T21:16:11.257Z,96.10
2019-05-13T21:18:42.226Z,96.20
2019-05-13T21:21:13.193Z,96.30
2019-05-13T21:23:44.161Z,96.40
2019-05-13T21:26:15.634Z,96.50
2019-05-13T21:28:46.630Z,96.50
2019-05-13T21:31:17.664Z,96.60
2019-05-13T21:33:48.543Z,96.70
2019-05-13T21:36:21.450Z,96.70
2019-05-13T21:38:51.626Z,96.90
2019-05-13T21:41:22.355Z,97.00
2019-05-13T21:43:53.113Z,96.90
2019-05-13T21:46:24.069Z,96.90
2019-05-13T21:48:54.800Z,96.80
2019-05-13T21:51:25.694Z,96.60
2019-05-13T21:53:56.462Z,96.60
2019-05-13T21:56:27.234Z,97.00
2019-05-13T21:58:58.547Z,96.50
2019-05-13T22:01:31.505Z,96.30
2019-05-13T22:04:01.787Z,96.20
2019-05-13T22:06:32.978Z,96.10
2019-05-13T22:09:03.951Z,96.00
2019-05-13T22:11:35.137Z,95.70
2019-05-13T22:14:06.121Z,95.60
2019-05-13T22:16:36.886Z,95.50
2019-05-13T22:19:07.633Z,95.50
2019-05-13T22:21:38.940Z,95.60
2019-05-13T22:24:11.428Z,95.60
2019-05-13T22:26:42.173Z,95.60
2019-05-13T22:29:13.081Z,95.60
2019-05-13T22:31:44.229Z,95.60
2019-05-13T22:34:14.985Z,95.70
2019-05-13T22:36:45.886Z,95.80
2019-05-13T22:39:16.681Z,96.00
2019-05-13T22:41:47.513Z,96.10
2019-05-13T22:44:18.509Z,96.40
2019-05-13T22:46:51.597Z,96.40
2019-05-13T22:49:22.142Z,96.40
2019-05-13T22:51:53.174Z,96.50
2019-05-13T22:54:23.971Z,96.50
2019-05-13T22:56:54.681Z,96.50
2019-05-13T22:59:25.449Z,96.50
2019-05-13T23:01:56.537Z,96.50
2019-05-13T23:04:27.291Z,96.60
2019-05-13T23:06:58.100Z,96.60
2019-05-13T23:09:28.980Z,96.20
2019-05-13T23:12:01.590Z,96.20
2019-05-13T23:14:32.475Z,96.00
2019-05-13T23:17:03.204Z,95.90
2019-05-13T23:19:33.976Z,95.80
2019-05-13T23:22:04.981Z,95.80
2019-05-13T23:24:36.159Z,96.10
2019-05-13T23:27:12.080Z,96.30
2019-05-13T23:29:43.088Z,96.30
2019-05-13T23:32:34.258Z,96.40
2019-05-13T23:35:05.484Z,96.60
2019-05-13T23:37:36.417Z,96.70
2019-05-13T23:40:08.392Z,96.80
2019-05-13T23:42:39.179Z,97.00
2019-05-13T23:45:11.443Z,96.90
2019-05-13T23:47:42.880Z,97.00
2019-05-13T23:50:14.036Z,97.00
2019-05-13T23:52:44.859Z,97.00
2019-05-13T23:55:15.720Z,97.00
2019-05-13T23:57:46.507Z,97.00
